Terminal Aerodrome Forecast
Issued by NWS Dallas/Fort Worth, TX

Home | Current Version | Previous Version | Text Only | Print | Product List | Glossary On
Versions: 1 2 3 4 5 6 7 8 9 10 11 12 13 14 15 16 17 18 19 20 21 22 23 24 25 26 27 28 29 30
165
FTUS44 KFWD 171502 CCB
TAFACT
TAF COR
KACT 171502Z 1715/1812 VRB03KT 3SM BR OVC008
      TEMPO 1715/1716 2SM BR BKN004
     FM171800 16006KT 6SM BR BKN012
     FM171900 17005KT P6SM BKN250
     FM181000 14003KT 4SM BR BKN009=

USA.gov is the U.S. government's official web portal to all federal, state and local government web resources and services.